createdAt,value
2018-11-12T00:00:33.829Z,1245.67
2018-11-12T00:03:01.908Z,1221.93
2018-11-12T00:05:29.782Z,1308.40
2018-11-12T00:07:57.655Z,1204.53
2018-11-12T00:10:25.518Z,1204.43
2018-11-12T00:12:53.570Z,1218.13
2018-11-12T00:15:21.418Z,1256.37
2018-11-12T00:17:49.279Z,1281.93
2018-11-12T00:20:17.738Z,1279.77
2018-11-12T00:22:46.063Z,1253.10
2018-11-12T00:25:13.990Z,1197.93
2018-11-12T00:27:42.217Z,1252.27
2018-11-12T00:30:11.290Z,1274.83
2018-11-12T00:32:39.146Z,1284.67
2018-11-12T00:35:07.351Z,1224.93
2018-11-12T00:37:35.195Z,1198.93
2018-11-12T00:40:03.301Z,1230.10
2018-11-12T00:42:31.208Z,1250.73
2018-11-12T00:44:59.088Z,1235.00
2018-11-12T00:47:26.930Z,1215.07
2018-11-12T00:49:54.778Z,1286.63
2018-11-12T00:52:22.625Z,1194.27
2018-11-12T00:54:50.480Z,1214.87
2018-11-12T00:57:18.335Z,1273.43
2018-11-12T00:59:46.198Z,1260.50
2018-11-12T01:02:14.047Z,1226.63
2018-11-12T01:04:42.282Z,1247.50
2018-11-12T01:07:10.155Z,1313.53
2018-11-12T01:09:38.198Z,1166.93
2018-11-12T01:12:06.159Z,1253.40
2018-11-12T01:14:34.346Z,1223.60
2018-11-12T01:17:02.280Z,1144.00
2018-11-12T01:19:30.152Z,1138.73
2018-11-12T01:21:58.010Z,1139.50
2018-11-12T01:24:25.859Z,1159.23
2018-11-12T01:26:53.755Z,1168.13
2018-11-12T01:29:21.624Z,1220.00
2018-11-12T01:31:49.644Z,1103.13
2018-11-12T01:34:17.503Z,1147.50
2018-11-12T01:36:45.399Z,1115.83
2018-11-12T01:39:13.244Z,1150.50
2018-11-12T01:41:42.037Z,1196.03
2018-11-12T01:44:09.886Z,1143.87
2018-11-12T01:46:37.729Z,1162.87
2018-11-12T01:49:05.632Z,1162.23
2018-11-12T01:51:33.521Z,1195.90
2018-11-12T01:54:01.366Z,1120.37
2018-11-12T01:56:29.254Z,1159.60
2018-11-12T01:58:57.139Z,1125.93
2018-11-12T02:01:24.988Z,1153.37
2018-11-12T02:03:52.874Z,1135.10
2018-11-12T02:06:20.723Z,1110.87
2018-11-12T02:08:48.666Z,1124.57
2018-11-12T02:11:16.455Z,1105.60
2018-11-12T02:13:44.334Z,1132.27
2018-11-12T02:16:12.190Z,1097.87
2018-11-12T02:18:40.046Z,1080.33
2018-11-12T02:21:08.478Z,1160.13
2018-11-12T02:23:36.537Z,1040.27
2018-11-12T02:26:04.583Z,1137.57
2018-11-12T02:28:32.483Z,1048.40
2018-11-12T02:31:00.333Z,1046.37
2018-11-12T02:33:28.210Z,1075.60
2018-11-12T02:35:56.065Z,1017.70
2018-11-12T02:38:23.917Z,1079.23
2018-11-12T02:40:51.840Z,1034.80
2018-11-12T02:43:19.653Z,1111.17
2018-11-12T02:45:47.517Z,1013.43
2018-11-12T02:48:15.374Z,1076.23
2018-11-12T02:50:43.241Z,1067.57
2018-11-12T02:53:11.108Z,1044.47
2018-11-12T02:55:38.970Z,1087.27
2018-11-12T02:58:06.822Z,1041.57
2018-11-12T03:00:34.686Z,1086.20
2018-11-12T03:03:02.533Z,1086.80
2018-11-12T03:05:30.405Z,1108.70
2018-11-12T03:07:58.258Z,1118.97
2018-11-12T03:10:26.111Z,1122.30
2018-11-12T03:12:53.994Z,1092.00
2018-11-12T03:15:22.145Z,1073.80
2018-11-12T03:17:50.897Z,1026.03
2018-11-12T03:20:19.877Z,1080.00
2018-11-12T03:22:47.883Z,1051.73
2018-11-12T03:25:16.993Z,1107.07
2018-11-12T03:27:45.772Z,1102.80
2018-11-12T03:30:14.984Z,1094.40
2018-11-12T03:32:43.761Z,1138.17
2018-11-12T03:35:12.353Z,1087.73
2018-11-12T03:37:41.225Z,1107.23
2018-11-12T03:40:10.090Z,1120.63
2018-11-12T03:42:37.961Z,1073.77
2018-11-12T03:45:07.357Z,1143.70
2018-11-12T03:47:35.201Z,1095.53
2018-11-12T03:50:03.241Z,1110.53
2018-11-12T03:52:31.279Z,1085.83
2018-11-12T03:54:59.138Z,1090.17
2018-11-12T03:57:27.034Z,1095.83
2018-11-12T03:59:54.885Z,1084.33
2018-11-12T04:02:22.730Z,1128.40
2018-11-12T04:04:50.588Z,1144.57
2018-11-12T04:07:18.563Z,1091.27
2018-11-12T04:09:46.444Z,1121.37
2018-11-12T04:12:14.475Z,1126.73
2018-11-12T04:14:42.307Z,1094.80
2018-11-12T04:17:10.166Z,1106.00
2018-11-12T04:19:38.022Z,1125.33
2018-11-12T04:22:05.877Z,1119.67
2018-11-12T04:24:33.723Z,1140.47
2018-11-12T04:27:01.590Z,1123.97
2018-11-12T04:29:29.429Z,1147.57
2018-11-12T04:31:57.486Z,1103.43
2018-11-12T04:34:25.353Z,1109.20
2018-11-12T04:36:53.205Z,1103.47
2018-11-12T04:39:21.054Z,1107.60
2018-11-12T04:41:48.937Z,1097.47
2018-11-12T04:44:16.795Z,1096.27
2018-11-12T04:46:44.695Z,1106.30
2018-11-12T04:49:12.522Z,1091.53
2018-11-12T04:51:40.386Z,1084.77
2018-11-12T04:54:08.234Z,1087.10
2018-11-12T04:56:36.220Z,1064.50
2018-11-12T04:59:04.479Z,1092.67
2018-11-12T05:01:32.350Z,1075.20
2018-11-12T05:04:00.205Z,1068.20
2018-11-12T05:06:28.053Z,1072.13
2018-11-12T05:08:55.922Z,1097.03
2018-11-12T05:11:23.894Z,1089.53
2018-11-12T05:13:51.742Z,1106.40
2018-11-12T05:16:19.597Z,1131.80
2018-11-12T05:18:47.450Z,1114.03
2018-11-12T05:21:15.306Z,1128.37
2018-11-12T05:23:43.170Z,1116.67
2018-11-12T05:26:11.027Z,1136.23
2018-11-12T05:28:38.945Z,1114.37
2018-11-12T05:31:06.815Z,1117.33
2018-11-12T05:33:34.658Z,1142.80
2018-11-12T05:36:02.509Z,1112.00
2018-11-12T05:38:30.353Z,1130.37
2018-11-12T05:40:58.301Z,1113.47
2018-11-12T05:43:26.153Z,1101.30
2018-11-12T05:45:54.021Z,1129.30
2018-11-12T05:48:21.881Z,1115.97
2018-11-12T05:50:50.538Z,1177.70
2018-11-12T05:53:18.393Z,1114.53
2018-11-12T05:55:46.241Z,1140.57
2018-11-12T05:58:14.103Z,1151.87
2018-11-12T06:00:41.950Z,1115.07
2018-11-12T06:03:09.806Z,1158.60
2018-11-12T06:05:37.658Z,1084.20
2018-11-12T06:08:05.522Z,1112.97
2018-11-12T06:10:34.106Z,1102.37
2018-11-12T06:13:01.961Z,1139.40
2018-11-12T06:15:29.805Z,1118.63
2018-11-12T06:17:57.662Z,1130.57
2018-11-12T06:20:26.770Z,1146.33
2018-11-12T06:22:54.674Z,1142.40
2018-11-12T06:25:28.188Z,1104.37
2018-11-12T06:27:56.518Z,1130.30
2018-11-12T06:30:28.928Z,1150.93
2018-11-12T06:32:56.802Z,1115.97
2018-11-12T06:35:24.659Z,1151.83
2018-11-12T06:37:53.105Z,1130.27
2018-11-12T06:40:21.991Z,1131.97
2018-11-12T06:42:50.011Z,1124.03
2018-11-12T06:45:28.977Z,1116.30
2018-11-12T06:47:57.469Z,1121.80
2018-11-12T06:50:26.758Z,1157.13
2018-11-12T06:52:54.745Z,1121.73
2018-11-12T06:55:23.010Z,1143.87
2018-11-12T06:57:51.206Z,1150.93
2018-11-12T07:00:21.813Z,1145.63
2018-11-12T07:02:49.697Z,1131.33
2018-11-12T07:05:17.749Z,1113.93
2018-11-12T07:07:45.597Z,1102.37
2018-11-12T07:10:14.713Z,1119.70
2018-11-12T07:12:43.412Z,1121.30
2018-11-12T07:15:12.593Z,1132.63
2018-11-12T07:17:40.445Z,1088.57
2018-11-12T07:20:09.805Z,1090.97
2018-11-12T07:22:37.686Z,1119.83
2018-11-12T07:25:06.069Z,1105.43
2018-11-12T07:27:33.960Z,1124.03
2018-11-12T07:30:01.805Z,1121.10
2018-11-12T07:32:29.682Z,1104.33
2018-11-12T07:34:57.527Z,1139.30
2018-11-12T07:37:25.376Z,1149.80
2018-11-12T07:39:53.226Z,1145.37
2018-11-12T07:42:21.098Z,1143.67
2018-11-12T07:44:48.950Z,1114.67
2018-11-12T07:47:16.803Z,1119.70
2018-11-12T07:49:44.659Z,1152.83
2018-11-12T07:52:12.506Z,1171.20
2018-11-12T07:54:40.361Z,1135.97
2018-11-12T07:57:08.218Z,1115.50
2018-11-12T07:59:36.069Z,1154.47
2018-11-12T08:02:03.918Z,1163.73
2018-11-12T08:04:31.790Z,1161.50
2018-11-12T08:06:59.637Z,1187.07
2018-11-12T08:09:27.541Z,1188.00
2018-11-12T08:11:55.380Z,1196.43
2018-11-12T08:14:23.223Z,1154.13
2018-11-12T08:16:51.074Z,1220.00
2018-11-12T08:19:18.925Z,1148.07
2018-11-12T08:21:46.903Z,1169.60
2018-11-12T08:24:14.711Z,1250.37
2018-11-12T08:26:42.498Z,1155.40
2018-11-12T08:29:10.343Z,1113.60
2018-11-12T08:31:38.185Z,1175.07
2018-11-12T08:34:06.035Z,1128.03
2018-11-12T08:36:33.893Z,1142.43
2018-11-12T08:39:01.758Z,1086.73
2018-11-12T08:41:29.610Z,1143.53
2018-11-12T08:43:57.473Z,1121.13
2018-11-12T08:46:25.317Z,1106.23
2018-11-12T08:48:53.184Z,1096.67
2018-11-12T08:51:21.058Z,1103.80
2018-11-12T08:53:48.924Z,1094.07
2018-11-12T08:56:16.772Z,1101.77
2018-11-12T08:58:44.637Z,1117.27
2018-11-12T09:01:12.483Z,1095.07
2018-11-12T09:03:40.386Z,1085.80
2018-11-12T09:06:08.234Z,1161.47
2018-11-12T09:08:36.093Z,1113.60
2018-11-12T09:11:03.942Z,1117.93
2018-11-12T09:13:31.802Z,1139.27
2018-11-12T09:15:59.646Z,1148.83
2018-11-12T09:18:27.513Z,1188.93
2018-11-12T09:20:55.366Z,1135.17
2018-11-12T09:23:23.207Z,1098.60
2018-11-12T09:25:51.070Z,1114.27
2018-11-12T09:28:18.917Z,1152.27
2018-11-12T09:30:47.919Z,1083.67
2018-11-12T09:33:14.623Z,1098.07
2018-11-12T09:35:42.485Z,1098.27
2018-11-12T09:38:10.389Z,1110.77
2018-11-12T09:40:38.884Z,1138.47
2018-11-12T09:43:06.853Z,1145.60
2018-11-12T09:45:34.922Z,1092.60
2018-11-12T09:48:02.771Z,1125.03
2018-11-12T09:50:30.732Z,1159.07
2018-11-12T09:52:59.625Z,1121.33
2018-11-12T09:55:28.534Z,1156.53
2018-11-12T09:57:59.874Z,1174.67
2018-11-12T10:00:27.914Z,1183.67
2018-11-12T10:02:56.208Z,1107.70
2018-11-12T10:05:24.862Z,1143.10
2018-11-12T10:07:55.909Z,1154.07
2018-11-12T10:10:28.223Z,1165.57
2018-11-12T10:12:54.105Z,1108.27
2018-11-12T10:15:23.572Z,1182.70
2018-11-12T10:17:52.511Z,1196.67
2018-11-12T10:20:16.848Z,1105.90
2018-11-12T10:22:45.096Z,1129.13
2018-11-12T10:25:12.947Z,1197.43
2018-11-12T10:27:40.791Z,1126.90
2018-11-12T10:30:09.167Z,1162.80
2018-11-12T10:32:37.068Z,1118.33
2018-11-12T10:35:05.519Z,1132.27
2018-11-12T10:37:33.362Z,1084.13
2018-11-12T10:40:01.222Z,1129.77
2018-11-12T10:42:29.151Z,1114.77
2018-11-12T10:44:56.958Z,1113.20
2018-11-12T10:47:24.798Z,1096.87
2018-11-12T10:49:53.593Z,1097.73
2018-11-12T10:52:21.438Z,1099.03
2018-11-12T10:54:49.481Z,1071.73
2018-11-12T10:57:17.149Z,1074.07
2018-11-12T10:59:45.082Z,1109.23
2018-11-12T11:02:18.374Z,1118.23
2018-11-12T11:04:46.233Z,1113.53
2018-11-12T11:07:14.085Z,1134.70
2018-11-12T11:09:41.941Z,1154.03
2018-11-12T11:12:09.794Z,1144.07
2018-11-12T11:14:37.679Z,1109.10
2018-11-12T11:17:05.542Z,1123.27
2018-11-12T11:19:33.435Z,1142.87
2018-11-12T11:22:01.266Z,1105.97
2018-11-12T11:24:29.117Z,1125.93
2018-11-12T11:26:56.976Z,1113.20
2018-11-12T11:29:24.808Z,1125.27
2018-11-12T11:31:52.739Z,1119.20
2018-11-12T11:34:20.699Z,1144.33
2018-11-12T11:36:48.574Z,1129.53
2018-11-12T11:39:16.440Z,1169.20
2018-11-12T11:41:44.305Z,1191.27
2018-11-12T11:44:12.162Z,1227.17
2018-11-12T11:46:40.021Z,1267.83
2018-11-12T11:49:07.885Z,1273.83
2018-11-12T11:51:35.782Z,1349.63
2018-11-12T11:54:03.670Z,1255.80
2018-11-12T11:56:31.642Z,1361.53
2018-11-12T11:58:59.406Z,1355.10
2018-11-12T12:01:27.293Z,1312.10
2018-11-12T12:03:59.806Z,1410.33
2018-11-12T12:06:28.401Z,1400.00
2018-11-12T12:08:56.643Z,1355.80
2018-11-12T12:11:24.464Z,1424.57
2018-11-12T12:13:52.425Z,1347.53
2018-11-12T12:16:20.279Z,1432.30
2018-11-12T12:18:48.118Z,1514.83
2018-11-12T12:21:15.978Z,1368.03
2018-11-12T12:23:43.821Z,1434.27
2018-11-12T12:26:11.838Z,1315.30
2018-11-12T12:28:39.682Z,1322.97
2018-11-12T12:31:07.578Z,1282.60
2018-11-12T12:33:35.433Z,1286.90
2018-11-12T12:36:03.370Z,1280.00
2018-11-12T12:38:31.157Z,1198.57
2018-11-12T12:40:59.018Z,1276.93
2018-11-12T12:43:26.869Z,1238.07
2018-11-12T12:45:54.821Z,1159.90
2018-11-12T12:48:23.095Z,1261.20
2018-11-12T12:50:51.066Z,1245.77
2018-11-12T12:53:19.026Z,1229.07
2018-11-12T12:55:47.005Z,1191.03
2018-11-12T12:58:14.783Z,1244.00
2018-11-12T13:00:42.606Z,1268.13
2018-11-12T13:03:10.463Z,1233.43
2018-11-12T13:05:38.305Z,1153.50
2018-11-12T13:08:06.162Z,1226.27
2018-11-12T13:10:34.007Z,1164.20
2018-11-12T13:13:01.862Z,1145.87
2018-11-12T13:15:29.706Z,1146.03
2018-11-12T13:17:57.549Z,1130.30
2018-11-12T13:20:25.513Z,1173.70
2018-11-12T13:22:53.357Z,1107.13
2018-11-12T13:25:21.198Z,1164.10
2018-11-12T13:27:49.122Z,1168.60
2018-11-12T13:30:21.331Z,1089.80
2018-11-12T13:32:49.350Z,1133.57
2018-11-12T13:35:18.845Z,1103.67
2018-11-12T13:37:46.721Z,1133.33
2018-11-12T13:40:16.014Z,1119.90
2018-11-12T13:42:45.331Z,1153.07
2018-11-12T13:45:13.178Z,1126.17
2018-11-12T13:47:41.040Z,1113.23
2018-11-12T13:50:09.822Z,1085.40
2018-11-12T13:52:44.482Z,1159.70
2018-11-12T13:55:13.449Z,1116.73
2018-11-12T13:57:41.354Z,1108.27
2018-11-12T14:00:09.914Z,1132.83
2018-11-12T14:02:37.771Z,1174.47
2018-11-12T14:05:06.430Z,1128.07
2018-11-12T14:07:34.293Z,1218.20
2018-11-12T14:10:02.143Z,1202.03
2018-11-12T14:12:30.003Z,1155.07
2018-11-12T14:14:57.856Z,1154.33
2018-11-12T14:17:25.725Z,1163.50
2018-11-12T14:19:53.577Z,1130.63
2018-11-12T14:22:21.451Z,1123.57
2018-11-12T14:24:49.317Z,1138.00
2018-11-12T14:27:17.189Z,1150.43
2018-11-12T14:29:45.049Z,1113.60
2018-11-12T14:32:12.898Z,1144.90
2018-11-12T14:34:40.746Z,1147.07
2018-11-12T14:37:08.601Z,1167.47
2018-11-12T14:39:36.483Z,1115.97
2018-11-12T14:42:04.334Z,1162.73
2018-11-12T14:44:32.193Z,1163.33
2018-11-12T14:47:06.523Z,1164.57
2018-11-12T14:49:34.540Z,1139.10
2018-11-12T14:52:02.446Z,1176.00
2018-11-12T14:54:30.542Z,1155.07
2018-11-12T14:56:58.391Z,1169.47
2018-11-12T14:59:31.919Z,1175.27
2018-11-12T15:02:06.651Z,1125.13
2018-11-12T15:04:34.528Z,1182.17
2018-11-12T15:07:02.387Z,1173.03
2018-11-12T15:09:30.301Z,1113.40
2018-11-12T15:11:58.149Z,1147.10
2018-11-12T15:14:26.001Z,1201.13
2018-11-12T15:16:53.846Z,1157.07
2018-11-12T15:19:21.738Z,1117.17
2018-11-12T15:21:59.056Z,1139.63
2018-11-12T15:24:26.914Z,1105.70
2018-11-12T15:26:54.773Z,1201.70
2018-11-12T15:29:25.232Z,1191.47
2018-11-12T15:31:55.456Z,1344.97
2018-11-12T15:34:27.620Z,1188.40
2018-11-12T15:36:58.608Z,1243.80
2018-11-12T15:39:30.091Z,1254.83
2018-11-12T15:42:00.716Z,1258.77
2018-11-12T15:44:31.430Z,1260.17
2018-11-12T15:47:03.093Z,1259.43
2018-11-12T15:49:34.355Z,1244.27
2018-11-12T15:52:05.290Z,1317.30
2018-11-12T15:54:35.869Z,1235.47
2018-11-12T15:57:06.831Z,1315.47
2018-11-12T15:59:37.662Z,1280.13
2018-11-12T16:02:08.721Z,1243.93
2018-11-12T16:04:41.232Z,1251.87
2018-11-12T16:07:09.159Z,1409.70
2018-11-12T16:09:37.031Z,1324.37
2018-11-12T16:12:08.073Z,1331.33
2018-11-12T16:14:36.022Z,1340.03
2018-11-12T16:17:03.874Z,1441.33
2018-11-12T16:19:35.519Z,1253.63
2018-11-12T16:22:03.419Z,1375.03
2018-11-12T16:24:31.291Z,1330.47
2018-11-12T16:26:59.143Z,1327.10
2018-11-12T16:29:27.007Z,1342.03
2018-11-12T16:34:29.429Z,1292.30
2018-11-12T16:36:57.302Z,1351.97
2018-11-12T16:39:25.163Z,1426.30
2018-11-12T16:41:53.054Z,1284.33
2018-11-12T16:44:20.914Z,1458.40
2018-11-12T16:46:49.022Z,1286.00
2018-11-12T16:49:16.895Z,1296.33
2018-11-12T16:51:44.732Z,1305.07
2018-11-12T16:54:19.837Z,1277.60
2018-11-12T16:56:50.970Z,1379.50
2018-11-12T16:59:19.065Z,1314.50
2018-11-12T17:01:46.951Z,1421.27
2018-11-12T17:04:14.897Z,1440.40
2018-11-12T17:06:44.119Z,1316.33
2018-11-12T17:09:13.143Z,1322.40
2018-11-12T17:11:41.105Z,1324.20
2018-11-12T17:14:09.061Z,1523.83
2018-11-12T17:16:37.073Z,1174.73
2018-11-12T17:19:05.093Z,1361.50
2018-11-12T17:21:37.104Z,1532.97
2018-11-12T17:24:05.071Z,1162.10
2018-11-12T17:26:32.927Z,1155.53
2018-11-12T17:29:00.783Z,1572.90
2018-11-12T17:31:29.126Z,1369.93
2018-11-12T17:33:57.031Z,1291.03
2018-11-12T17:36:25.020Z,1093.77
2018-11-12T17:38:52.901Z,1307.63
2018-11-12T17:41:20.852Z,1349.57
2018-11-12T17:43:48.654Z,1341.70
2018-11-12T17:46:16.514Z,1389.40
2018-11-12T17:48:44.478Z,1451.07
2018-11-12T17:51:12.417Z,1514.53
2018-11-12T17:53:40.257Z,1313.50
2018-11-12T17:56:08.128Z,1362.90
2018-11-12T17:58:35.973Z,1290.07
2018-11-12T18:01:03.981Z,1323.80
2018-11-12T18:03:31.850Z,1999.90
2018-11-12T18:05:59.700Z,1878.23
2018-11-12T18:08:27.579Z,1449.77
2018-11-12T18:10:55.462Z,1400.10
2018-11-12T18:13:23.298Z,1522.57
2018-11-12T18:15:51.154Z,1416.63
2018-11-12T18:18:19.030Z,1470.10
2018-11-12T18:20:46.929Z,1466.27
2018-11-12T18:23:14.824Z,1448.03
2018-11-12T18:25:42.670Z,1769.37
2018-11-12T18:28:10.517Z,1999.90
2018-11-12T18:30:38.639Z,1404.97
2018-11-12T18:33:06.298Z,1996.63
2018-11-12T18:35:34.158Z,1510.50
2018-11-12T18:38:02.107Z,1613.07
2018-11-12T18:40:30.082Z,1769.90
2018-11-12T18:42:57.958Z,1532.63
2018-11-12T18:45:26.882Z,1493.87
2018-11-12T18:47:55.068Z,1449.93
2018-11-12T18:50:24.353Z,1822.53
2018-11-12T18:52:52.295Z,1999.90
2018-11-12T18:55:20.154Z,1575.23
2018-11-12T18:57:48.690Z,1496.93
2018-11-12T19:00:18.916Z,1542.27
2018-11-12T19:02:47.049Z,1987.07
2018-11-12T19:05:16.535Z,1643.07
2018-11-12T19:07:45.423Z,1940.17
2018-11-12T19:10:15.586Z,1917.50
2018-11-12T19:12:44.200Z,1655.27
2018-11-12T19:15:13.695Z,1525.10
2018-11-12T19:17:42.245Z,1664.63
2018-11-12T19:20:10.093Z,1556.83
2018-11-12T19:22:38.044Z,1689.03
2018-11-12T19:25:07.245Z,1749.30
2018-11-12T19:27:35.281Z,1839.70
2018-11-12T19:30:03.253Z,1574.30
2018-11-12T19:32:31.234Z,1900.90
2018-11-12T19:34:59.555Z,1899.87
2018-11-12T19:37:27.610Z,1719.83
2018-11-12T19:39:55.564Z,1768.33
2018-11-12T19:42:23.448Z,1999.90
2018-11-12T19:44:51.321Z,1999.90
2018-11-12T19:47:19.175Z,1907.37
2018-11-12T19:49:47.119Z,1999.90
2018-11-12T19:52:14.990Z,1999.90
2018-11-12T19:54:42.898Z,1988.23
2018-11-12T19:57:10.699Z,1999.90
2018-11-12T19:59:38.569Z,1999.90
2018-11-12T20:02:06.550Z,1999.90
2018-11-12T20:04:34.533Z,1999.90
2018-11-12T20:07:02.543Z,1999.90
2018-11-12T20:09:30.468Z,1999.90
2018-11-12T20:11:58.309Z,1999.90
2018-11-12T20:14:26.161Z,1999.90
2018-11-12T20:16:54.121Z,1999.90
2018-11-12T20:19:21.994Z,1999.90
2018-11-12T20:21:49.830Z,1999.90
2018-11-12T20:24:17.681Z,1999.90
2018-11-12T20:26:45.634Z,1999.90
2018-11-12T20:29:13.513Z,1999.90
2018-11-12T20:31:41.358Z,1999.90
2018-11-12T20:34:09.322Z,1999.90
2018-11-12T20:36:37.140Z,1999.90
2018-11-12T20:39:06.532Z,1999.90
2018-11-12T20:41:34.471Z,1999.90
2018-11-12T20:44:02.350Z,1999.90
2018-11-12T20:46:30.251Z,1999.90
2018-11-12T20:48:58.097Z,1999.90
2018-11-12T20:51:25.945Z,1999.90
2018-11-12T20:53:53.881Z,1999.90
2018-11-12T20:56:21.678Z,1999.90
2018-11-12T20:58:49.533Z,1999.90
2018-11-12T21:01:17.363Z,1999.90
2018-11-12T21:03:45.286Z,1999.90
2018-11-12T21:06:13.307Z,1999.90
2018-11-12T21:08:41.214Z,1999.10
2018-11-12T21:11:09.124Z,1999.90
2018-11-12T21:13:36.966Z,1878.50
2018-11-12T21:16:04.922Z,1999.03
2018-11-12T21:18:32.798Z,1999.90
2018-11-12T21:21:00.686Z,1794.33
2018-11-12T21:23:28.535Z,1648.07
2018-11-12T21:25:56.389Z,1900.30
2018-11-12T21:28:24.238Z,1691.37
2018-11-12T21:30:52.127Z,1854.60
2018-11-12T21:33:20.152Z,1818.30
2018-11-12T21:35:48.002Z,1999.90
2018-11-12T21:40:57.655Z,1800.00
2018-11-12T21:43:26.322Z,1999.90
2018-11-12T21:45:57.648Z,1998.33
2018-11-12T21:48:33.314Z,1977.67
2018-11-12T21:51:06.815Z,1888.10
2018-11-12T21:53:46.577Z,1977.77
2018-11-12T21:56:14.849Z,1970.13
2018-11-12T21:58:42.779Z,1999.90
2018-11-12T22:01:10.734Z,1987.10
2018-11-12T22:03:38.678Z,1999.90
2018-11-12T22:06:06.631Z,1927.63
2018-11-12T22:08:34.633Z,1997.43
2018-11-12T22:11:02.465Z,1922.10
2018-11-12T22:13:30.326Z,1983.47
2018-11-12T22:15:58.193Z,1999.90
2018-11-12T22:18:26.062Z,1991.63
2018-11-12T22:20:53.933Z,1999.90
2018-11-12T22:23:21.794Z,1894.17
2018-11-12T22:25:49.654Z,1884.07
2018-11-12T22:28:17.559Z,1987.77
2018-11-12T22:30:45.454Z,1994.53
2018-11-12T22:33:13.317Z,1995.30
2018-11-12T22:35:41.185Z,1999.90
2018-11-12T22:38:09.058Z,1999.90
2018-11-12T22:40:36.924Z,1999.90
2018-11-12T22:43:04.922Z,1999.90
2018-11-12T22:45:33.061Z,1966.20
2018-11-12T22:48:00.882Z,1955.87
2018-11-12T22:50:29.305Z,1977.83
2018-11-12T22:52:57.315Z,1878.63
2018-11-12T22:55:25.294Z,1985.90
2018-11-12T22:57:53.273Z,1917.23
2018-11-12T23:00:27.376Z,1912.93
2018-11-12T23:02:55.757Z,1995.37
2018-11-12T23:05:23.957Z,1962.43
2018-11-12T23:07:52.369Z,1961.07
2018-11-12T23:10:20.599Z,1929.87
2018-11-12T23:12:48.456Z,1865.70
2018-11-12T23:15:16.923Z,1783.13
2018-11-12T23:17:45.402Z,1733.53
2018-11-12T23:20:16.103Z,1839.33
2018-11-12T23:22:44.633Z,1674.57
2018-11-12T23:25:12.737Z,1614.07
2018-11-12T23:27:41.153Z,1577.67
2018-11-12T23:30:10.226Z,1527.50
2018-11-12T23:32:38.358Z,1456.53
2018-11-12T23:35:07.355Z,1470.93
2018-11-12T23:37:35.250Z,1382.77
2018-11-12T23:40:03.229Z,1425.97
2018-11-12T23:42:31.206Z,1305.87
2018-11-12T23:44:59.417Z,1400.30
2018-11-12T23:47:27.458Z,1328.93
2018-11-12T23:49:55.510Z,1331.23
2018-11-12T23:52:23.521Z,1342.70
2018-11-12T23:54:51.578Z,1399.77
2018-11-12T23:57:19.487Z,1333.03
2018-11-12T23:59:47.491Z,1431.70
